createdAt,value
2022-07-26T00:00:13.079Z,0.90
2022-07-26T00:02:47.495Z,1.00
2022-07-26T00:05:16.296Z,0.70
2022-07-26T00:07:43.653Z,1.00
2022-07-26T00:10:12.982Z,1.20
2022-07-26T00:12:40.251Z,0.73
2022-07-26T00:15:09.803Z,0.90
2022-07-26T00:17:37.027Z,1.00
2022-07-26T00:20:05.348Z,1.70
2022-07-26T00:22:34.942Z,0.93
2022-07-26T00:25:07.307Z,0.90
2022-07-26T00:27:37.195Z,1.00
2022-07-26T00:30:14.485Z,1.80
2022-07-26T00:32:41.836Z,1.03
2022-07-26T00:35:09.230Z,1.83
2022-07-26T00:37:36.285Z,1.50
2022-07-26T00:40:04.018Z,1.53
2022-07-26T00:42:31.106Z,1.43
2022-07-26T00:44:58.141Z,0.90
2022-07-26T00:47:25.107Z,1.23
2022-07-26T00:49:52.041Z,1.00
2022-07-26T00:52:19.062Z,1.30
2022-07-26T00:54:46.640Z,1.40
2022-07-26T00:57:15.053Z,1.30
2022-07-26T00:59:42.636Z,1.40
2022-07-26T01:02:11.144Z,1.60
2022-07-26T01:04:39.904Z,1.40
2022-07-26T01:07:15.243Z,1.23
2022-07-26T01:09:43.121Z,1.37
2022-07-26T01:12:10.395Z,1.50
2022-07-26T01:14:37.676Z,1.70
2022-07-26T01:17:07.150Z,1.30
2022-07-26T01:19:34.034Z,1.77
2022-07-26T01:22:01.025Z,1.03
2022-07-26T01:24:28.025Z,1.30
2022-07-26T01:26:57.624Z,1.30
2022-07-26T01:29:34.813Z,1.50
2022-07-26T01:32:05.203Z,3.70
2022-07-26T01:34:32.491Z,1.73
2022-07-26T01:36:59.659Z,1.97
2022-07-26T01:39:26.952Z,1.80
2022-07-26T01:41:54.450Z,1.80
2022-07-26T01:44:23.060Z,2.43
2022-07-26T01:46:50.612Z,2.80
2022-07-26T01:49:18.082Z,2.03
2022-07-26T01:51:45.146Z,2.13
2022-07-26T01:54:12.514Z,1.70
2022-07-26T01:56:39.597Z,2.30
2022-07-26T01:59:06.546Z,2.67
2022-07-26T02:01:38.741Z,2.50
2022-07-26T02:04:08.466Z,2.37
2022-07-26T02:06:35.743Z,2.00
2022-07-26T02:09:07.588Z,1.73
2022-07-26T02:11:36.677Z,2.20
2022-07-26T02:14:03.833Z,2.00
2022-07-26T02:16:30.806Z,2.97
2022-07-26T02:18:57.838Z,1.90
2022-07-26T02:21:24.735Z,2.03
2022-07-26T02:23:51.600Z,2.00
2022-07-26T02:26:18.508Z,1.80
2022-07-26T02:28:45.409Z,2.20
2022-07-26T02:31:12.533Z,2.00
2022-07-26T02:33:42.685Z,2.80
2022-07-26T02:36:09.625Z,2.17
2022-07-26T02:38:36.559Z,1.67
2022-07-26T02:41:03.501Z,1.70
2022-07-26T02:43:32.345Z,1.73
2022-07-26T02:46:01.592Z,1.80
2022-07-26T02:48:44.544Z,2.00
2022-07-26T02:51:11.535Z,1.90
2022-07-26T02:53:38.406Z,1.90
2022-07-26T02:56:05.809Z,2.30
2022-07-26T02:58:32.711Z,1.90
2022-07-26T03:00:59.517Z,1.77
2022-07-26T03:03:26.497Z,1.30
2022-07-26T03:05:53.420Z,2.17
2022-07-26T03:08:20.840Z,2.00
2022-07-26T03:10:47.784Z,2.27
2022-07-26T03:13:15.267Z,2.10
2022-07-26T03:15:42.196Z,1.50
2022-07-26T03:18:12.137Z,1.97
2022-07-26T03:20:39.046Z,1.70
2022-07-26T03:23:05.938Z,1.70
2022-07-26T03:25:32.885Z,1.87
2022-07-26T03:28:04.787Z,1.70
2022-07-26T03:30:31.905Z,1.90
2022-07-26T03:32:58.911Z,1.57
2022-07-26T03:35:25.983Z,1.80
2022-07-26T03:37:53.279Z,2.00
2022-07-26T03:40:20.829Z,2.13
2022-07-26T03:42:48.335Z,2.07
2022-07-26T03:45:16.108Z,2.30
2022-07-26T03:47:43.789Z,1.90
2022-07-26T03:50:11.264Z,2.37
2022-07-26T03:52:38.443Z,2.10
2022-07-26T03:55:26.602Z,2.57
2022-07-26T03:57:53.674Z,2.57
2022-07-26T04:00:20.614Z,2.07
2022-07-26T04:02:47.526Z,2.30
2022-07-26T04:05:14.468Z,1.90
2022-07-26T04:07:52.813Z,2.37
2022-07-26T04:10:21.166Z,2.10
2022-07-26T04:12:48.427Z,2.63
2022-07-26T04:15:17.248Z,2.53
2022-07-26T04:17:44.475Z,2.17
2022-07-26T04:20:12.698Z,2.13
2022-07-26T04:22:40.605Z,2.57
2022-07-26T04:25:08.816Z,2.37
2022-07-26T04:27:36.172Z,2.53
2022-07-26T04:30:03.764Z,4.13
2022-07-26T04:32:30.728Z,2.50
2022-07-26T04:34:58.631Z,2.00
2022-07-26T04:37:25.585Z,2.17
2022-07-26T04:39:55.064Z,2.27
2022-07-26T04:42:22.044Z,2.80
2022-07-26T04:44:48.870Z,2.70
2022-07-26T04:47:15.728Z,2.17
2022-07-26T04:49:42.688Z,2.47
2022-07-26T04:52:09.576Z,3.13
2022-07-26T04:54:36.419Z,2.70
2022-07-26T04:57:03.468Z,3.10
2022-07-26T04:59:32.751Z,3.23
2022-07-26T05:02:00.113Z,2.73
2022-07-26T05:04:27.197Z,3.80
2022-07-26T05:06:54.265Z,2.93
2022-07-26T05:09:21.154Z,3.73
2022-07-26T05:11:48.067Z,3.63
2022-07-26T05:14:15.011Z,3.90
2022-07-26T05:16:44.430Z,3.80
2022-07-26T05:19:15.876Z,4.10
2022-07-26T05:21:42.834Z,4.13
2022-07-26T05:24:10.253Z,5.13
2022-07-26T05:26:37.516Z,4.80
2022-07-26T05:29:04.437Z,4.90
2022-07-26T05:31:31.398Z,4.70
2022-07-26T05:33:58.441Z,6.60
2022-07-26T05:36:25.345Z,5.20
2022-07-26T05:38:52.251Z,5.30
2022-07-26T05:41:19.147Z,5.60
2022-07-26T05:43:46.082Z,6.20
2022-07-26T05:46:13.133Z,7.27
2022-07-26T05:48:40.466Z,6.50
2022-07-26T05:51:07.701Z,7.37
2022-07-26T05:53:34.801Z,7.33
2022-07-26T05:56:01.835Z,6.63
2022-07-26T05:58:28.652Z,6.03
2022-07-26T06:00:55.600Z,5.73
2022-07-26T06:03:22.498Z,6.17
2022-07-26T06:05:51.407Z,5.50
2022-07-26T06:08:19.176Z,6.00
2022-07-26T06:10:47.148Z,5.70
2022-07-26T06:13:14.699Z,8.70
2022-07-26T06:15:42.369Z,5.87
2022-07-26T06:18:09.636Z,5.37
2022-07-26T06:20:40.607Z,5.07
2022-07-26T06:23:07.500Z,6.23
2022-07-26T06:25:34.893Z,5.80
2022-07-26T06:28:06.248Z,5.50
2022-07-26T06:30:33.407Z,5.00
2022-07-26T06:33:00.569Z,4.93
2022-07-26T06:35:31.023Z,5.10
2022-07-26T06:38:00.035Z,4.87
2022-07-26T06:40:27.330Z,3.77
2022-07-26T06:42:54.277Z,4.17
2022-07-26T06:45:21.433Z,4.60
2022-07-26T06:47:48.336Z,4.80
2022-07-26T06:50:15.386Z,3.13
2022-07-26T06:52:47.979Z,3.43
2022-07-26T06:55:15.114Z,3.77
2022-07-26T06:57:49.779Z,4.00
2022-07-26T07:00:18.280Z,4.30
2022-07-26T07:02:45.419Z,4.00
2022-07-26T07:05:12.893Z,4.63
2022-07-26T07:07:39.896Z,4.73
2022-07-26T07:10:09.765Z,5.40
2022-07-26T07:12:36.820Z,5.30
2022-07-26T07:15:04.514Z,5.63
2022-07-26T07:17:31.462Z,5.40
2022-07-26T07:20:00.476Z,5.50
2022-07-26T07:22:27.353Z,6.03
2022-07-26T07:24:54.237Z,6.03
2022-07-26T07:27:21.131Z,7.40
2022-07-26T07:29:48.164Z,7.77
2022-07-26T07:32:18.478Z,6.80
2022-07-26T07:34:47.571Z,7.83
2022-07-26T07:37:15.121Z,7.80
2022-07-26T07:39:42.070Z,8.30
2022-07-26T07:42:09.253Z,11.20
2022-07-26T07:44:36.114Z,13.10
2022-07-26T07:47:03.511Z,12.73
2022-07-26T07:49:30.570Z,12.03
2022-07-26T07:51:57.541Z,14.30
2022-07-26T07:54:24.458Z,15.07
2022-07-26T07:56:53.117Z,14.80
2022-07-26T07:59:20.128Z,16.20
2022-07-26T08:01:49.914Z,13.60
2022-07-26T08:04:17.001Z,15.10
2022-07-26T08:06:47.705Z,15.17
2022-07-26T08:09:18.222Z,14.10
2022-07-26T08:11:45.705Z,15.07
2022-07-26T08:14:18.414Z,15.37
2022-07-26T08:16:45.352Z,13.60
2022-07-26T08:19:12.757Z,14.50
2022-07-26T08:21:39.909Z,13.67
2022-07-26T08:24:07.518Z,15.60
2022-07-26T08:26:34.398Z,15.30
2022-07-26T08:29:01.322Z,15.00
2022-07-26T08:31:31.594Z,17.03
2022-07-26T08:33:58.672Z,17.40
2022-07-26T08:36:31.830Z,16.07
2022-07-26T08:39:00.196Z,13.63
2022-07-26T08:41:27.260Z,13.97
2022-07-26T08:43:54.215Z,14.43
2022-07-26T08:46:26.956Z,14.47
2022-07-26T08:48:56.101Z,13.43
2022-07-26T08:51:24.672Z,13.20
2022-07-26T08:54:04.258Z,11.73
2022-07-26T08:56:34.332Z,12.37
2022-07-26T08:59:18.625Z,11.40
2022-07-26T09:02:04.664Z,8.27
2022-07-26T09:04:37.420Z,7.90
2022-07-26T09:07:11.136Z,8.40
2022-07-26T09:09:55.678Z,7.77
2022-07-26T09:16:11.563Z,7.00
2022-07-26T09:18:38.637Z,6.47
2022-07-26T09:21:05.728Z,5.87
2022-07-26T09:23:42.466Z,6.37
2022-07-26T09:26:09.359Z,6.47
2022-07-26T09:28:36.239Z,6.10
2022-07-26T09:31:12.875Z,6.17
2022-07-26T09:33:50.359Z,5.10
2022-07-26T09:36:18.442Z,4.27
2022-07-26T09:38:51.025Z,3.90
2022-07-26T09:41:37.618Z,3.00
2022-07-26T09:44:07.439Z,2.47
2022-07-26T09:46:35.852Z,2.70
2022-07-26T09:49:19.670Z,1.57
2022-07-26T09:51:48.941Z,1.30
2022-07-26T09:54:41.427Z,1.40
2022-07-26T09:57:08.347Z,1.40
2022-07-26T09:59:35.337Z,1.33
2022-07-26T10:02:02.473Z,1.30
2022-07-26T10:04:29.423Z,1.13
2022-07-26T10:06:59.386Z,1.60
2022-07-26T10:09:33.315Z,1.60
2022-07-26T10:12:04.910Z,1.13
2022-07-26T10:15:00.959Z,1.50
2022-07-26T10:17:46.068Z,1.40
2022-07-26T10:20:46.855Z,1.47
2022-07-26T10:23:43.155Z,1.47
2022-07-26T10:26:30.046Z,1.90
2022-07-26T10:29:15.558Z,1.43
2022-07-26T10:31:46.413Z,1.37
2022-07-26T10:34:37.205Z,1.80
2022-07-26T10:37:10.372Z,1.20
2022-07-26T10:39:38.663Z,1.47
2022-07-26T10:42:10.420Z,0.97
2022-07-26T10:44:42.563Z,0.60
2022-07-26T10:47:16.006Z,1.07
2022-07-26T10:50:05.711Z,0.87
2022-07-26T10:52:32.914Z,1.00
2022-07-26T10:55:08.605Z,0.87
2022-07-26T10:57:41.200Z,0.60
2022-07-26T11:00:20.424Z,0.83
2022-07-26T11:02:55.420Z,1.57
2022-07-26T11:05:25.925Z,0.63
2022-07-26T11:08:11.087Z,0.70
2022-07-26T11:10:46.397Z,0.90
2022-07-26T11:13:22.405Z,0.83
2022-07-26T11:15:51.873Z,1.00
2022-07-26T11:18:32.467Z,1.00
2022-07-26T11:21:15.774Z,1.17
2022-07-26T11:23:44.863Z,1.20
2022-07-26T11:26:18.840Z,1.07
2022-07-26T11:29:06.766Z,1.43
2022-07-26T11:31:51.241Z,1.30
2022-07-26T11:34:33.273Z,1.63
2022-07-26T11:37:02.780Z,0.80
2022-07-26T11:39:38.890Z,1.23
2022-07-26T11:42:12.068Z,0.67
2022-07-26T11:44:43.971Z,0.57
2022-07-26T11:47:25.393Z,0.50
2022-07-26T11:52:40.570Z,0.67
2022-07-26T11:55:08.428Z,0.77
2022-07-26T11:57:35.366Z,0.67
2022-07-26T12:00:03.134Z,0.70
2022-07-26T12:02:30.682Z,0.50
2022-07-26T12:05:19.369Z,1.03
2022-07-26T12:08:02.805Z,0.70
2022-07-26T12:10:30.195Z,0.70
2022-07-26T12:13:08.145Z,0.80
2022-07-26T12:15:52.429Z,0.70
2022-07-26T12:18:30.903Z,0.50
2022-07-26T12:21:07.449Z,0.70
2022-07-26T12:23:55.260Z,0.70
2022-07-26T12:26:24.717Z,0.50
2022-07-26T12:28:51.993Z,0.73
2022-07-26T12:31:32.941Z,0.70
2022-07-26T12:34:00.189Z,0.97
2022-07-26T12:36:29.424Z,0.60
2022-07-26T12:39:00.958Z,0.70
2022-07-26T12:41:47.395Z,0.50
2022-07-26T12:44:15.260Z,0.40
2022-07-26T12:46:44.971Z,0.97
2022-07-26T12:49:12.068Z,0.70
2022-07-26T12:51:39.149Z,1.00
2022-07-26T12:54:06.517Z,0.70
2022-07-26T12:56:34.065Z,0.50
2022-07-26T12:59:01.650Z,0.50
2022-07-26T13:01:30.310Z,0.60
2022-07-26T13:03:57.407Z,0.50
2022-07-26T13:06:24.330Z,0.50
2022-07-26T13:08:51.428Z,0.40
2022-07-26T13:11:18.374Z,0.40
2022-07-26T13:13:45.312Z,0.53
2022-07-26T13:16:12.609Z,0.40
2022-07-26T13:18:39.830Z,0.40
2022-07-26T13:21:07.033Z,0.50
2022-07-26T13:23:34.992Z,0.43
2022-07-26T13:26:03.391Z,0.50
2022-07-26T13:28:30.981Z,0.50
2022-07-26T13:30:58.094Z,0.50
2022-07-26T13:33:25.192Z,0.50
2022-07-26T13:35:52.169Z,0.40
2022-07-26T13:38:20.240Z,0.50
2022-07-26T13:40:47.343Z,0.50
2022-07-26T13:43:14.838Z,0.60
2022-07-26T13:45:41.840Z,0.67
2022-07-26T13:48:09.012Z,0.63
2022-07-26T13:50:35.895Z,0.60
2022-07-26T13:53:02.789Z,0.67
2022-07-26T13:55:29.769Z,1.10
2022-07-26T13:57:58.103Z,0.70
2022-07-26T14:00:29.462Z,0.50
2022-07-26T14:02:58.881Z,0.60
2022-07-26T14:05:27.669Z,0.70
2022-07-26T14:07:55.281Z,0.70
2022-07-26T14:10:23.489Z,0.77
2022-07-26T14:12:51.040Z,0.70
2022-07-26T14:15:22.264Z,0.70
2022-07-26T14:17:51.346Z,0.70
2022-07-26T14:20:18.425Z,0.60
2022-07-26T14:22:45.835Z,0.70
2022-07-26T14:25:12.935Z,0.93
2022-07-26T14:27:39.988Z,0.70
2022-07-26T14:30:07.443Z,1.33
2022-07-26T14:32:34.432Z,0.60
2022-07-26T14:35:01.420Z,0.70
2022-07-26T14:37:43.204Z,0.80
2022-07-26T14:40:15.993Z,0.60
2022-07-26T14:42:43.048Z,0.60
2022-07-26T14:45:10.920Z,0.87
2022-07-26T14:47:37.906Z,0.70
2022-07-26T14:50:07.542Z,0.60
2022-07-26T14:52:41.753Z,0.90
2022-07-26T14:55:09.461Z,0.70
2022-07-26T14:57:38.159Z,0.60
2022-07-26T15:00:09.356Z,0.47
2022-07-26T15:02:39.187Z,0.50
2022-07-26T15:05:06.364Z,0.60
2022-07-26T15:07:33.300Z,0.63
2022-07-26T15:10:00.208Z,0.70
2022-07-26T15:12:27.110Z,0.80
2022-07-26T15:14:53.949Z,1.10
2022-07-26T15:17:21.560Z,0.60
2022-07-26T15:19:48.514Z,0.50
2022-07-26T15:22:15.712Z,0.60
2022-07-26T15:24:42.616Z,0.60
2022-07-26T15:27:09.632Z,0.80
2022-07-26T15:29:36.607Z,0.60
2022-07-26T15:32:04.593Z,0.60
2022-07-26T15:34:32.447Z,1.10
2022-07-26T15:36:59.791Z,0.70
2022-07-26T15:39:26.655Z,0.67
2022-07-26T15:41:54.548Z,0.70
2022-07-26T15:44:25.572Z,0.50
2022-07-26T15:46:52.862Z,0.70
2022-07-26T15:49:19.899Z,0.50
2022-07-26T15:51:47.612Z,0.60
2022-07-26T15:54:16.173Z,0.70
2022-07-26T15:56:43.923Z,0.90
2022-07-26T15:59:10.925Z,0.77
2022-07-26T16:01:38.285Z,0.80
2022-07-26T16:04:05.874Z,1.10
2022-07-26T16:06:36.412Z,0.60
2022-07-26T16:09:20.088Z,0.60
2022-07-26T16:11:48.478Z,0.83
2022-07-26T16:14:16.233Z,1.00
2022-07-26T16:16:43.365Z,1.00
2022-07-26T16:19:11.188Z,0.80
2022-07-26T16:21:39.032Z,1.10
2022-07-26T16:24:07.790Z,1.50
2022-07-26T16:26:35.843Z,0.90
2022-07-26T16:29:03.554Z,1.27
2022-07-26T16:31:31.357Z,1.20
2022-07-26T16:33:58.390Z,0.80
2022-07-26T16:36:25.461Z,0.90
2022-07-26T16:38:52.400Z,0.93
2022-07-26T16:41:19.710Z,0.83
2022-07-26T16:43:46.605Z,1.37
2022-07-26T16:46:15.539Z,0.90
2022-07-26T16:48:42.843Z,0.70
2022-07-26T16:51:09.905Z,1.10
2022-07-26T16:53:37.177Z,1.20
2022-07-26T16:56:04.297Z,0.90
2022-07-26T16:58:31.304Z,2.40
2022-07-26T17:00:58.825Z,1.20
2022-07-26T17:03:25.796Z,1.03
2022-07-26T17:05:52.785Z,1.00
2022-07-26T17:08:19.948Z,0.90
2022-07-26T17:10:47.068Z,1.30
2022-07-26T17:13:14.422Z,1.07
2022-07-26T17:15:41.379Z,2.33
2022-07-26T17:18:08.337Z,1.43
2022-07-26T17:20:36.073Z,1.20
2022-07-26T17:23:03.050Z,1.93
2022-07-26T17:25:30.203Z,1.50
2022-07-26T17:27:57.071Z,0.73
2022-07-26T17:30:24.220Z,1.10
2022-07-26T17:32:52.297Z,1.10
2022-07-26T17:35:20.193Z,3.30
2022-07-26T17:37:47.410Z,1.20
2022-07-26T17:40:16.457Z,1.90
2022-07-26T17:42:43.504Z,1.40
2022-07-26T17:45:11.061Z,1.17
2022-07-26T17:47:38.071Z,0.90
2022-07-26T17:52:54.756Z,0.97
2022-07-26T17:55:22.201Z,2.07
2022-07-26T17:57:49.885Z,1.53
2022-07-26T18:00:20.133Z,1.27
2022-07-26T18:02:47.650Z,2.03
2022-07-26T18:05:15.141Z,1.00
2022-07-26T18:07:42.123Z,1.40
2022-07-26T18:10:11.357Z,1.10
2022-07-26T18:12:38.363Z,1.60
2022-07-26T18:15:06.881Z,0.83
2022-07-26T18:17:33.981Z,1.00
2022-07-26T18:20:00.822Z,2.13
2022-07-26T18:22:27.767Z,1.23
2022-07-26T18:24:54.885Z,1.00
2022-07-26T18:27:22.390Z,1.83
2022-07-26T18:29:49.852Z,1.90
2022-07-26T18:32:16.979Z,1.30
2022-07-26T18:34:51.461Z,1.40
2022-07-26T18:37:20.428Z,1.40
2022-07-26T18:39:48.094Z,1.53
2022-07-26T18:42:15.610Z,1.77
2022-07-26T18:44:42.704Z,1.57
2022-07-26T18:47:10.008Z,1.70
2022-07-26T18:49:37.113Z,1.53
2022-07-26T18:52:08.330Z,2.20
2022-07-26T18:54:36.142Z,1.60
2022-07-26T18:57:03.847Z,2.27
2022-07-26T18:59:31.335Z,1.80
2022-07-26T19:02:00.089Z,1.70
2022-07-26T19:04:28.017Z,1.90
2022-07-26T19:06:56.525Z,1.53
2022-07-26T19:09:23.426Z,1.37
2022-07-26T19:11:50.404Z,1.73
2022-07-26T19:14:17.544Z,1.40
2022-07-26T19:16:44.659Z,2.37
2022-07-26T19:19:11.966Z,1.80
2022-07-26T19:21:40.917Z,2.13
2022-07-26T19:24:07.848Z,3.03
2022-07-26T19:26:36.020Z,2.03
2022-07-26T19:29:03.698Z,2.30
2022-07-26T19:31:31.012Z,1.57
2022-07-26T19:33:58.160Z,2.00
2022-07-26T19:36:25.999Z,1.90
2022-07-26T19:38:57.554Z,1.50
2022-07-26T19:41:24.468Z,1.57
2022-07-26T19:43:51.405Z,3.07
2022-07-26T19:46:18.527Z,2.50
2022-07-26T19:48:45.576Z,2.30
2022-07-26T19:51:12.568Z,2.60
2022-07-26T19:53:39.533Z,1.63
2022-07-26T19:56:07.959Z,1.80
2022-07-26T19:58:34.927Z,2.53
2022-07-26T20:01:02.038Z,1.37
2022-07-26T20:03:29.026Z,1.83
2022-07-26T20:05:56.923Z,1.67
2022-07-26T20:08:24.324Z,2.40
2022-07-26T20:10:51.834Z,1.87
2022-07-26T20:13:18.949Z,1.60
2022-07-26T20:15:47.354Z,1.87
2022-07-26T20:18:14.253Z,3.03
2022-07-26T20:20:41.902Z,1.97
2022-07-26T20:23:11.037Z,1.50
2022-07-26T20:25:37.994Z,1.87
2022-07-26T20:28:05.330Z,2.20
2022-07-26T20:30:32.357Z,1.97
2022-07-26T20:32:59.441Z,1.90
2022-07-26T20:35:26.372Z,2.00
2022-07-26T20:37:53.424Z,1.90
2022-07-26T20:40:20.572Z,1.83
2022-07-26T20:42:50.352Z,2.50
2022-07-26T20:45:17.886Z,1.50
2022-07-26T20:47:44.831Z,1.97
2022-07-26T20:50:12.650Z,1.67
2022-07-26T20:52:40.263Z,2.47
2022-07-26T20:55:08.398Z,1.93
2022-07-26T20:57:37.156Z,1.60
2022-07-26T21:00:07.634Z,1.90
2022-07-26T21:02:34.722Z,1.20
2022-07-26T21:05:01.938Z,1.83
2022-07-26T21:07:58.797Z,1.30
2022-07-26T21:10:16.346Z,1.77
2022-07-26T21:12:43.403Z,3.90
2022-07-26T21:15:11.938Z,2.00
2022-07-26T21:17:39.693Z,1.10
2022-07-26T21:20:07.566Z,1.50
2022-07-26T21:22:34.602Z,1.33
2022-07-26T21:25:01.537Z,1.40
2022-07-26T21:27:28.467Z,1.40
2022-07-26T21:29:55.536Z,1.10
2022-07-26T21:32:22.607Z,1.33
2022-07-26T21:34:49.604Z,1.07
2022-07-26T21:37:16.919Z,1.00
2022-07-26T21:39:43.951Z,1.73
2022-07-26T21:42:10.948Z,1.10
2022-07-26T21:44:37.852Z,0.90
2022-07-26T21:47:05.941Z,2.80
2022-07-26T21:49:33.871Z,1.70
2022-07-26T21:52:01.035Z,1.13
2022-07-26T21:54:28.149Z,1.13
2022-07-26T21:56:55.199Z,1.30
2022-07-26T21:59:22.184Z,1.20
2022-07-26T22:01:49.313Z,1.27
2022-07-26T22:04:17.887Z,3.50
2022-07-26T22:06:45.000Z,1.70
2022-07-26T22:09:12.374Z,2.27
2022-07-26T22:11:39.533Z,2.03
2022-07-26T22:14:08.500Z,1.87
2022-07-26T22:16:35.846Z,1.63
2022-07-26T22:19:02.971Z,2.17
2022-07-26T22:21:29.965Z,1.17
2022-07-26T22:23:57.005Z,1.50
2022-07-26T22:26:27.071Z,2.30
2022-07-26T22:28:53.973Z,1.63
2022-07-26T22:31:21.262Z,2.27
2022-07-26T22:33:48.325Z,1.00
2022-07-26T22:36:15.439Z,1.60
2022-07-26T22:38:42.469Z,0.97
2022-07-26T22:41:09.339Z,1.50
2022-07-26T22:43:36.270Z,0.97
2022-07-26T22:46:03.949Z,1.13
2022-07-26T22:48:30.981Z,1.43
2022-07-26T22:50:57.891Z,1.20
2022-07-26T22:53:24.723Z,1.20
2022-07-26T22:55:52.230Z,0.87
2022-07-26T22:58:19.545Z,1.30
2022-07-26T23:00:46.564Z,1.00
2022-07-26T23:03:19.485Z,1.00
2022-07-26T23:05:48.431Z,1.80
2022-07-26T23:08:44.174Z,1.07
2022-07-26T23:11:02.945Z,1.30
2022-07-26T23:13:29.852Z,0.93
2022-07-26T23:16:00.402Z,1.00
2022-07-26T23:18:29.309Z,1.00
2022-07-26T23:20:56.233Z,0.90
2022-07-26T23:23:23.111Z,0.77
2022-07-26T23:25:52.349Z,1.10
2022-07-26T23:28:35.233Z,1.20
2022-07-26T23:31:08.402Z,1.30
2022-07-26T23:33:52.812Z,1.00
2022-07-26T23:36:22.671Z,1.33
2022-07-26T23:38:49.543Z,1.37
2022-07-26T23:41:16.808Z,1.33
2022-07-26T23:43:43.684Z,2.37
2022-07-26T23:46:10.661Z,1.20
2022-07-26T23:48:37.729Z,1.70
2022-07-26T23:51:04.686Z,1.90
2022-07-26T23:53:31.534Z,1.47
2022-07-26T23:55:59.634Z,1.30
2022-07-26T23:58:26.583Z,2.03
